Anvle, Pennsylvania
Current Conditions -  °F | °C
As of 11:02 AM on Tuesday 21 Oct 2014 (Local Time) from KMUI Reporting Station
Overcast Overcast  
Wind Chill: 55°   Ceiling: 1100
Heat Index: 55°   Visibility: 10mi
Dew Point: 55°   Wind: 3mph
Humidity: 100%   Direction: NA
Pressure: 29.88"   Gusts: NA
Location:  40.43°N, 76.56°W
Report Text: KMUI 211502Z AUTO VRB03KT 10SM BKN011 OVC080 13/13 A2988 RMK AO2 CIG 011V080 BKN V SCT $
Loading
Personal Weather Stations






























Interactive Weather Map
Tropical Storm Tracking
New forecast layout! Learn more

10-Day Weather Forecast

Advertisements
Track Severe Weather on mobile